createdAt,value
2018-03-17T00:01:47.162Z,18.04
2018-03-17T00:07:37.906Z,18.46
2018-03-17T00:13:28.684Z,12.3
2018-03-17T00:19:19.486Z,18.94
2018-03-17T00:25:10.312Z,18.55
2018-03-17T00:31:01.013Z,32.71
2018-03-17T00:36:51.827Z,43.84
2018-03-17T00:42:42.599Z,37.91
2018-03-17T00:48:33.370Z,38.13
2018-03-17T00:54:24.154Z,32.64
2018-03-17T01:00:14.906Z,35.33
2018-03-17T01:06:05.720Z,15.77
2018-03-17T01:11:56.506Z,12.08
2018-03-17T01:17:47.224Z,4.69
2018-03-17T01:23:38.025Z,5.93
2018-03-17T01:29:28.809Z,4.17
2018-03-17T01:35:19.540Z,3.61
2018-03-17T01:41:10.395Z,2.73
2018-03-17T01:47:01.146Z,2.16
2018-03-17T01:52:51.900Z,2.31
2018-03-17T01:58:42.652Z,1.87
2018-03-17T02:04:33.432Z,4.06
2018-03-17T02:10:24.226Z,2.74
2018-03-17T02:16:14.964Z,2.47
2018-03-17T02:22:05.763Z,3.44
2018-03-17T02:27:56.502Z,5.24
2018-03-17T02:33:47.314Z,4.93
2018-03-17T02:39:38.030Z,9.22
2018-03-17T02:45:28.835Z,4.4
2018-03-17T02:51:19.575Z,5.25
2018-03-17T02:57:10.389Z,8.23
2018-03-17T03:03:01.122Z,3.59
2018-03-17T03:08:51.923Z,9.91
2018-03-17T03:14:42.733Z,3.7
2018-03-17T03:20:33.455Z,3.77
2018-03-17T03:26:24.252Z,4.36
2018-03-17T03:32:14.994Z,1.8
2018-03-17T03:38:05.750Z,2.18
2018-03-17T03:43:56.556Z,3.99
2018-03-17T03:49:47.356Z,2.51
2018-03-17T03:55:38.111Z,4.16
2018-03-17T04:01:28.813Z,3.18
2018-03-17T04:07:19.604Z,2.73
2018-03-17T04:13:10.381Z,4.02
2018-03-17T04:19:01.179Z,2.86
2018-03-17T04:24:51.905Z,2.7
2018-03-17T04:30:42.729Z,4.18
2018-03-17T04:36:33.481Z,4.5
2018-03-17T04:42:24.246Z,5.71
2018-03-17T04:48:15.010Z,9.24
2018-03-17T04:54:05.804Z,9.18
2018-03-17T04:59:56.594Z,11.01
2018-03-17T05:05:47.286Z,5.72
2018-03-17T05:11:38.113Z,10.48
2018-03-17T05:17:28.830Z,11.82
2018-03-17T05:23:19.578Z,18.87
2018-03-17T05:29:10.401Z,27.01
2018-03-17T05:35:01.166Z,9.47
2018-03-17T05:40:51.923Z,11.05
2018-03-17T05:46:42.671Z,10.3
2018-03-17T05:52:33.485Z,20.84
2018-03-17T05:58:24.209Z,17.43
2018-03-17T06:04:15.019Z,18.77
2018-03-17T06:10:05.810Z,14.1
2018-03-17T06:15:56.561Z,15.72
2018-03-17T06:21:47.306Z,20.33
2018-03-17T06:27:38.106Z,20.14
2018-03-17T06:33:28.854Z,20.6
2018-03-17T06:39:19.605Z,24.27
2018-03-17T06:45:10.371Z,11.77
2018-03-17T06:51:01.153Z,10.54
2018-03-17T06:56:51.966Z,9.77
2018-03-17T07:02:42.737Z,13.21
2018-03-17T07:08:33.513Z,8.25
2018-03-17T07:14:24.284Z,9.23
2018-03-17T07:20:15.070Z,12.49
2018-03-17T07:26:05.924Z,9.74
2018-03-17T07:31:56.626Z,10.24
2018-03-17T07:37:47.474Z,10.24
2018-03-17T07:43:38.173Z,6.72
2018-03-17T07:49:28.929Z,6.01
2018-03-17T07:55:19.692Z,8.5
2018-03-17T08:01:10.487Z,6.05
2018-03-17T08:07:01.270Z,5.65
2018-03-17T08:12:52.054Z,6.12
2018-03-17T08:18:42.840Z,2.86
2018-03-17T08:24:33.610Z,4.51
2018-03-17T08:30:24.413Z,7
2018-03-17T08:36:15.197Z,6.29
2018-03-17T08:42:05.991Z,6.6
2018-03-17T08:47:56.735Z,5.11
2018-03-17T08:53:47.563Z,3.33
2018-03-17T08:59:38.326Z,2.84
2018-03-17T09:05:29.134Z,3.12
2018-03-17T09:11:19.904Z,4.52
2018-03-17T09:17:10.678Z,4.67
2018-03-17T09:23:01.425Z,6.52
2018-03-17T09:28:52.212Z,3.13
2018-03-17T09:34:43.057Z,3.17
2018-03-17T09:40:33.813Z,3.06
2018-03-17T09:46:24.591Z,3.74
2018-03-17T09:52:15.449Z,3.15
2018-03-17T09:58:06.164Z,3.86
2018-03-17T10:03:56.929Z,2.84
2018-03-17T10:09:47.709Z,4.33
2018-03-17T10:15:38.532Z,3.15
2018-03-17T10:21:29.321Z,5.44
2018-03-17T10:27:20.301Z,3.73
2018-03-17T10:33:10.961Z,3.95
2018-03-17T10:39:01.734Z,6.71
2018-03-17T10:44:52.465Z,5.53
2018-03-17T10:50:43.259Z,4.79
2018-03-17T10:56:34.048Z,4.52
2018-03-17T11:02:24.884Z,5.42
2018-03-17T11:08:15.679Z,6.87
2018-03-17T11:14:06.447Z,11.63
2018-03-17T11:19:57.256Z,9.39
2018-03-17T11:25:48.051Z,16.37
2018-03-17T11:31:38.839Z,13.66
2018-03-17T11:37:29.615Z,8.46
2018-03-17T11:43:20.410Z,7.37
2018-03-17T11:49:11.182Z,7.15
2018-03-17T11:55:01.988Z,5.36
2018-03-17T12:00:52.762Z,8.06
2018-03-17T12:06:43.539Z,8.45
2018-03-17T12:12:34.338Z,9.65
2018-03-17T12:18:25.159Z,8.02
2018-03-17T12:24:15.961Z,10.9
2018-03-17T12:30:06.832Z,3.63
2018-03-17T12:35:57.540Z,4.32
2018-03-17T12:41:48.358Z,4.14
2018-03-17T12:47:39.179Z,4.45
2018-03-17T12:53:29.949Z,2.29
2018-03-17T12:59:20.737Z,1.94
2018-03-17T13:05:11.524Z,5.96
2018-03-17T13:11:02.367Z,13.46
2018-03-17T13:16:53.170Z,2.94
2018-03-17T13:22:43.966Z,0.86
2018-03-17T13:28:34.841Z,1.07
2018-03-17T13:34:25.625Z,1.76
2018-03-17T13:40:16.374Z,2.36
2018-03-17T13:46:07.203Z,2
2018-03-17T13:51:58.008Z,1.3
2018-03-17T13:57:48.902Z,2.72
2018-03-17T14:03:39.582Z,4.59
2018-03-17T14:09:30.416Z,1.92
2018-03-17T14:15:21.211Z,3.67
2018-03-17T14:21:12.009Z,7.38
2018-03-17T14:27:02.791Z,1.57
2018-03-17T14:32:53.566Z,4
2018-03-17T14:38:44.456Z,1.72
2018-03-17T14:44:35.215Z,1.32
2018-03-17T14:50:25.954Z,0.97
2018-03-17T14:56:16.778Z,1.95
2018-03-17T15:02:07.558Z,3.14
2018-03-17T15:07:58.294Z,20.49
2018-03-17T15:13:49.101Z,13.39
2018-03-17T15:20:25.122Z,6.49
2018-03-17T15:37:57.503Z,2.54
2018-03-17T15:43:48.338Z,2.74
2018-03-17T15:49:39.104Z,4.17
2018-03-17T15:55:29.896Z,10.02
2018-03-17T16:01:20.679Z,3
2018-03-17T16:07:11.418Z,4.56
2018-03-17T16:13:02.303Z,6.01
2018-03-17T16:18:53.028Z,11.07
2018-03-17T16:24:43.772Z,12.62
2018-03-17T16:30:34.817Z,17.84
2018-03-17T16:36:25.362Z,8.28
2018-03-17T16:42:16.158Z,15.32
2018-03-17T16:48:06.931Z,11.11
2018-03-17T16:53:57.731Z,8.01
2018-03-17T16:59:48.636Z,21.67
2018-03-17T17:05:39.278Z,22.11
2018-03-17T17:11:30.093Z,11.84
2018-03-17T17:17:20.876Z,10.84
2018-03-17T17:23:11.637Z,14.41
2018-03-17T17:29:02.484Z,9.76
2018-03-17T17:34:53.280Z,11.42
2018-03-17T17:40:43.950Z,12.1
2018-03-17T17:46:34.742Z,13.18
2018-03-17T17:52:25.626Z,12.69
2018-03-17T17:58:16.318Z,13.42
2018-03-17T18:04:07.107Z,15.33
2018-03-17T18:09:57.874Z,17.04
2018-03-17T18:15:48.716Z,11.38
2018-03-17T18:21:39.478Z,14.39
2018-03-17T18:27:30.255Z,16.73
2018-03-17T18:33:21.060Z,22.84
2018-03-17T18:39:11.783Z,19.88
2018-03-17T18:45:02.545Z,19.2
2018-03-17T18:50:53.369Z,20.93
2018-03-17T18:56:44.160Z,21.31
2018-03-17T19:02:34.883Z,21.34
2018-03-17T19:08:25.662Z,24.16
2018-03-17T19:14:16.438Z,16.15
2018-03-17T19:20:07.188Z,32.94
2018-03-17T19:25:57.976Z,27.72
2018-03-17T19:31:48.767Z,23.09
2018-03-17T19:37:39.545Z,19.49
2018-03-17T19:43:30.332Z,18.1
2018-03-17T19:49:21.098Z,26.27
2018-03-17T19:55:11.952Z,20.76
2018-03-17T20:01:02.643Z,24.79
2018-03-17T20:06:53.496Z,17.08
2018-03-17T20:12:44.202Z,18.21
2018-03-17T20:18:34.954Z,19.04
2018-03-17T20:24:25.763Z,20.39
2018-03-17T20:30:16.502Z,20.51
2018-03-17T20:36:07.292Z,19.23
2018-03-17T20:41:58.068Z,27.8
2018-03-17T20:47:48.833Z,12.89
2018-03-17T20:53:39.583Z,19.88
2018-03-17T20:59:30.346Z,18.32
2018-03-17T21:05:21.130Z,13.65
2018-03-17T21:11:11.875Z,14.64
2018-03-17T21:17:02.695Z,20.15
2018-03-17T21:22:53.441Z,15.33
2018-03-17T21:28:44.222Z,19.09
2018-03-17T21:34:34.967Z,21.9
2018-03-17T21:40:25.714Z,12.7
2018-03-17T21:46:16.485Z,17.54
2018-03-17T21:52:07.264Z,21.95
2018-03-17T21:57:58.034Z,16.95
2018-03-17T22:03:48.771Z,17.56
2018-03-17T22:09:39.564Z,19.65
2018-03-17T22:15:30.343Z,15.52
2018-03-17T22:21:21.068Z,11.22
2018-03-17T22:27:11.874Z,11.46
2018-03-17T22:33:02.687Z,13.71
2018-03-17T22:38:53.420Z,13.61
2018-03-17T22:44:44.107Z,12.86
2018-03-17T22:50:34.889Z,16.1
2018-03-17T22:56:25.622Z,7.99
2018-03-17T23:02:16.439Z,11.72
2018-03-17T23:08:07.145Z,10.56
2018-03-17T23:13:57.905Z,8.94
2018-03-17T23:19:48.641Z,11.15
2018-03-17T23:25:39.443Z,8.44
2018-03-17T23:31:30.173Z,16.88
2018-03-17T23:37:20.948Z,9.23
2018-03-17T23:43:11.694Z,16.05
2018-03-17T23:49:02.509Z,9.03
2018-03-17T23:54:53.207Z,6.85
